Time;durP1;ratioP1;P1;durP2;ratioP2;P2;SDS_P1;SDS_P2;PMS_P1;PMS_P2;Temp;Humidity;BMP_temperature;BMP_pressure;BME280_temperature;BME280_humidity;BME280_pressure;Samples;Min_cycle;Max_cycle;Signal;HPM_P1;HPM_P2
2021/12/16 00:07:20;;;;;;;22.45;17.65;;;8.60;99.90;;;;;;5036108;28;20033;-81
2021/12/16 00:09:51;;;;;;;26.80;18.17;;;8.60;99.90;;;;;;5032847;28;20068;-80
2021/12/16 00:31:47;;;;;;;26.10;18.75;;;8.70;99.90;;;;;;5022261;28;20049;-82
2021/12/16 00:34:13;;;;;;;29.33;19.92;;;8.80;99.90;;;;;;5043500;28;20029;-82
2021/12/16 00:36:42;;;;;;;28.92;20.30;;;8.70;99.90;;;;;;5024882;28;20033;-82
2021/12/16 00:39:25;;;;;;;28.15;20.15;;;8.60;99.90;;;;;;5020787;28;20037;-80
2021/12/16 00:41:58;;;;;;;27.17;18.75;;;8.60;99.90;;;;;;5020617;28;20033;-82
2021/12/16 00:47:25;;;;;;;27.00;20.48;;;8.70;99.90;;;;;;5014700;28;20026;-81
2021/12/16 00:49:50;;;;;;;29.88;20.40;;;8.70;99.90;;;;;;5027476;28;20065;-82
2021/12/16 00:55:22;;;;;;;28.40;20.25;;;8.60;99.90;;;;;;5027591;28;20029;-83
2021/12/16 00:57:50;;;;;;;28.02;21.30;;;8.70;99.90;;;;;;5013640;28;20028;-80
2021/12/16 01:00:20;;;;;;;30.08;21.20;;;8.60;99.90;;;;;;5004117;28;20494;-83
2021/12/16 01:35:55;;;;;;;30.20;21.73;;;8.50;99.90;;;;;;5002627;28;20026;-81
2021/12/16 01:41:43;;;;;;;32.45;23.15;;;8.60;99.90;;;;;;5031624;28;20033;-81
2021/12/16 01:47:01;;;;;;;31.88;23.25;;;8.60;99.90;;;;;;5034360;28;20056;-81
2021/12/16 01:49:38;;;;;;;30.48;22.55;;;8.70;99.90;;;;;;5011904;28;20110;-81
2021/12/16 01:55:14;;;;;;;34.35;22.85;;;8.60;99.90;;;;;;5034253;28;20030;-81
2021/12/16 01:57:45;;;;;;;31.88;22.08;;;8.60;99.90;;;;;;5033407;28;20032;-80
2021/12/16 02:00:27;;;;;;;32.35;22.58;;;8.60;99.90;;;;;;5018108;28;20457;-81
2021/12/16 02:03:00;;;;;;;32.67;21.98;;;8.60;99.90;;;;;;5017001;28;20036;-81
2021/12/16 02:08:20;;;;;;;34.50;23.10;;;8.70;99.90;;;;;;5038876;28;20056;-79
2021/12/16 02:10:57;;;;;;;31.30;22.63;;;8.70;99.90;;;;;;5037707;28;20029;-81
2021/12/16 02:27:15;;;;;;;37.17;23.38;;;8.70;99.90;;;;;;5026039;28;20029;-80
2021/12/16 02:35:11;;;;;;;32.92;22.75;;;8.80;99.90;;;;;;5036720;28;20029;-83
2021/12/16 02:37:44;;;;;;;36.88;25.35;;;8.90;99.90;;;;;;5038133;28;20076;-82
2021/12/16 02:40:11;;;;;;;34.20;24.58;;;8.80;99.90;;;;;;5038476;28;20045;-81
2021/12/16 02:42:50;;;;;;;35.15;23.45;;;8.70;99.90;;;;;;5005418;28;20038;-81
2021/12/16 02:50:44;;;;;;;34.45;25.10;;;8.70;99.90;;;;;;5037862;28;20288;-81
2021/12/16 02:53:10;;;;;;;37.63;25.20;;;8.60;99.90;;;;;;5019646;28;20603;-81
2021/12/16 02:55:36;;;;;;;39.00;26.15;;;8.40;99.90;;;;;;5003627;28;20056;-81
2021/12/16 02:58:01;;;;;;;42.38;27.80;;;8.40;99.90;;;;;;5019846;28;20062;-79
2021/12/16 03:00:33;;;;;;;39.20;26.13;;;8.30;99.90;;;;;;5019188;28;20030;-80
2021/12/16 03:02:59;;;;;;;40.97;27.25;;;8.30;99.90;;;;;;5012380;28;20022;-82
2021/12/16 03:05:24;;;;;;;41.70;26.83;;;8.20;99.90;;;;;;5027353;28;20034;-80
2021/12/16 03:07:52;;;;;;;37.80;25.48;;;8.30;99.90;;;;;;5020923;28;20370;-83
2021/12/16 03:13:07;;;;;;;38.90;25.67;;;8.30;99.90;;;;;;5039142;28;20400;-81
2021/12/16 03:16:07;;;;;;;39.90;26.40;;;8.30;99.90;;;;;;5044694;28;20268;-80
2021/12/16 03:21:02;;;;;;;40.25;27.83;;;8.50;99.90;;;;;;5035831;28;20051;-80
2021/12/16 03:29:14;;;;;;;37.55;25.75;;;8.60;99.90;;;;;;5045314;28;20037;-82
2021/12/16 03:31:55;;;;;;;38.00;26.85;;;8.40;99.90;;;;;;5036252;28;20037;-80
2021/12/16 03:34:42;;;;;;;38.20;25.58;;;8.40;99.90;;;;;;5018295;28;20033;-81
2021/12/16 03:37:22;;;;;;;40.15;26.67;;;8.30;99.90;;;;;;5036079;28;20029;-81
2021/12/16 03:39:53;;;;;;;41.13;26.98;;;8.30;99.90;;;;;;5018770;28;20022;-81
2021/12/16 03:42:24;;;;;;;46.33;29.63;;;8.40;99.90;;;;;;5031924;28;20022;-81
2021/12/16 03:44:54;;;;;;;41.72;27.65;;;8.50;99.90;;;;;;5018909;28;20029;-81
2021/12/16 03:47:26;;;;;;;42.80;27.30;;;8.40;99.90;;;;;;5018547;28;20026;-80
2021/12/16 03:49:51;;;;;;;43.70;28.40;;;8.50;99.90;;;;;;5019539;28;20030;-80
2021/12/16 03:52:18;;;;;;;44.28;28.08;;;8.50;99.90;;;;;;5018757;28;20109;-81
2021/12/16 03:54:49;;;;;;;43.92;28.50;;;8.50;99.90;;;;;;5016311;28;20030;-81
2021/12/16 03:57:17;;;;;;;43.03;27.88;;;8.40;99.90;;;;;;5036678;28;20029;-81
2021/12/16 03:59:43;;;;;;;45.00;28.75;;;8.40;99.90;;;;;;5011599;28;20030;-80
2021/12/16 04:02:14;;;;;;;45.17;28.05;;;8.40;99.90;;;;;;5025638;28;20116;-79
2021/12/16 04:04:43;;;;;;;47.40;28.58;;;8.20;99.90;;;;;;5018401;28;20029;-81
2021/12/16 04:07:09;;;;;;;42.33;29.33;;;8.20;99.90;;;;;;5009029;28;20033;-80
2021/12/16 04:09:36;;;;;;;45.20;28.42;;;8.30;99.90;;;;;;5013510;28;20033;-79
2021/12/16 04:12:08;;;;;;;41.03;27.75;;;8.30;99.90;;;;;;5018126;28;20041;-81
2021/12/16 04:14:35;;;;;;;47.13;29.83;;;8.30;99.90;;;;;;5034511;28;20394;-80
2021/12/16 04:17:03;;;;;;;45.78;29.55;;;8.30;99.90;;;;;;5001418;28;20103;-81
2021/12/16 04:19:30;;;;;;;43.40;29.27;;;8.30;99.90;;;;;;5007187;28;20038;-80
2021/12/16 04:22:10;;;;;;;42.72;27.73;;;8.30;99.90;;;;;;5014963;28;20029;-80
2021/12/16 04:24:36;;;;;;;47.47;30.48;;;8.30;99.90;;;;;;5005652;28;20034;-82
2021/12/16 04:27:10;;;;;;;45.83;29.00;;;8.40;99.90;;;;;;5018269;28;20091;-82
2021/12/16 04:29:37;;;;;;;46.00;30.13;;;8.30;99.90;;;;;;5017201;28;20036;-81
2021/12/16 04:32:04;;;;;;;47.60;30.50;;;8.30;99.90;;;;;;5017502;28;20025;-79
2021/12/16 04:34:30;;;;;;;48.30;29.02;;;8.30;99.90;;;;;;5001593;28;20030;-80
2021/12/16 04:36:56;;;;;;;47.20;30.20;;;8.30;99.90;;;;;;5034454;28;20116;-81
2021/12/16 04:39:28;;;;;;;45.08;30.33;;;8.30;99.90;;;;;;5017257;28;20083;-80
2021/12/16 04:41:55;;;;;;;49.50;31.23;;;8.20;99.90;;;;;;5017989;28;20037;-81
2021/12/16 04:44:22;;;;;;;51.80;31.88;;;8.20;99.90;;;;;;5017544;28;20040;-81
2021/12/16 04:46:48;;;;;;;49.75;31.20;;;8.30;99.90;;;;;;5018008;28;20047;-82
2021/12/16 04:49:15;;;;;;;49.38;31.48;;;8.40;99.90;;;;;;5017939;28;20132;-82
2021/12/16 04:51:45;;;;;;;52.22;30.80;;;8.40;99.90;;;;;;5018102;28;20091;-81
2021/12/16 04:54:17;;;;;;;49.35;32.45;;;8.40;99.90;;;;;;5035032;28;20037;-81
2021/12/16 04:56:43;;;;;;;49.47;29.90;;;8.40;99.90;;;;;;5041754;28;20085;-82
2021/12/16 04:59:12;;;;;;;52.08;32.70;;;8.30;99.90;;;;;;5023380;28;20171;-81
2021/12/16 05:01:42;;;;;;;50.75;32.00;;;8.30;99.90;;;;;;5045088;28;20044;-80
2021/12/16 05:04:07;;;;;;;50.38;31.50;;;8.30;99.90;;;;;;5005389;28;20106;-80
2021/12/16 05:06:35;;;;;;;51.55;31.45;;;8.30;99.90;;;;;;5001960;28;20037;-81
2021/12/16 05:09:03;;;;;;;47.83;30.90;;;8.40;99.90;;;;;;5018294;28;20029;-81
2021/12/16 05:11:29;;;;;;;48.67;31.55;;;8.40;99.90;;;;;;5001126;28;20103;-80
2021/12/16 05:13:57;;;;;;;49.33;31.00;;;8.30;99.90;;;;;;5017933;28;20087;-79
2021/12/16 05:16:23;;;;;;;56.10;32.42;;;8.40;99.90;;;;;;5017643;28;20045;-81
2021/12/16 05:18:52;;;;;;;46.42;30.98;;;8.40;99.90;;;;;;5018265;28;20396;-81
2021/12/16 05:27:00;;;;;;;50.42;31.00;;;8.20;99.90;;;;;;5035947;28;20069;-82
2021/12/16 05:29:26;;;;;;;49.33;31.67;;;8.10;99.90;;;;;;5018535;28;20096;-82
2021/12/16 05:31:53;;;;;;;52.92;33.50;;;8.10;99.90;;;;;;5019182;28;20033;-82
2021/12/16 05:34:20;;;;;;;49.45;30.98;;;8.20;99.90;;;;;;5004000;28;20041;-82
2021/12/16 05:36:45;;;;;;;51.10;32.95;;;8.20;99.90;;;;;;5019114;28;20037;-82
2021/12/16 05:39:13;;;;;;;61.63;34.88;;;8.30;99.90;;;;;;5019104;28;20397;-81
2021/12/16 05:41:42;;;;;;;47.58;30.77;;;8.20;99.90;;;;;;5021977;28;20030;-81
2021/12/16 05:44:08;;;;;;;52.00;31.98;;;8.10;99.90;;;;;;5039554;28;20166;-82
2021/12/16 05:46:35;;;;;;;52.60;31.38;;;8.20;99.90;;;;;;5040692;28;20037;-81
2021/12/16 05:49:03;;;;;;;53.03;31.48;;;8.20;99.90;;;;;;5022347;28;20034;-82
2021/12/16 05:51:32;;;;;;;51.00;32.00;;;8.20;99.90;;;;;;5022616;28;20067;-82
2021/12/16 05:54:00;;;;;;;50.85;31.48;;;8.20;99.90;;;;;;5039598;28;20037;-83
2021/12/16 05:56:26;;;;;;;51.55;32.17;;;8.30;99.90;;;;;;5023499;28;20113;-82
2021/12/16 05:58:52;;;;;;;53.08;32.33;;;8.20;99.90;;;;;;5022081;28;20056;-82
2021/12/16 06:01:21;;;;;;;48.58;31.30;;;8.30;99.90;;;;;;5039902;28;20033;-82
2021/12/16 06:03:48;;;;;;;48.00;32.08;;;8.40;99.90;;;;;;5023200;28;20034;-82
2021/12/16 06:06:15;;;;;;;52.22;31.92;;;8.30;99.90;;;;;;5023689;28;20033;-82
2021/12/16 06:08:41;;;;;;;54.38;32.72;;;8.30;99.90;;;;;;5041615;28;20029;-84
2021/12/16 06:13:42;;;;;;;51.22;31.63;;;8.10;99.90;;;;;;5039642;28;20033;-81
2021/12/16 06:29:30;;;;;;;55.30;30.85;;;8.10;99.90;;;;;;5027505;28;20113;-81
2021/12/16 06:31:57;;;;;;;54.05;32.33;;;8.00;99.90;;;;;;5022044;28;20074;-80
2021/12/16 06:34:23;;;;;;;52.67;31.65;;;8.00;99.90;;;;;;5035886;28;20017;-80
2021/12/16 06:36:49;;;;;;;45.10;28.83;;;8.10;99.90;;;;;;5022248;28;20037;-80
2021/12/16 06:39:15;;;;;;;57.85;33.30;;;8.20;99.90;;;;;;5022341;28;20038;-81
2021/12/16 06:41:40;;;;;;;50.45;30.13;;;8.10;99.90;;;;;;5023723;28;20478;-81
2021/12/16 06:44:24;;;;;;;44.65;28.35;;;8.10;99.90;;;;;;5005059;28;20036;-82
2021/12/16 06:46:53;;;;;;;46.83;28.00;;;8.30;99.90;;;;;;5030986;28;20037;-83
2021/12/16 06:49:20;;;;;;;46.10;29.38;;;8.40;99.90;;;;;;5022756;28;20168;-83
2021/12/16 06:52:00;;;;;;;53.60;30.30;;;8.40;99.90;;;;;;5021958;28;20060;-82
2021/12/16 06:54:30;;;;;;;50.83;31.83;;;8.20;99.90;;;;;;5023512;28;20037;-82
2021/12/16 06:57:23;;;;;;;49.78;30.88;;;8.30;99.90;;;;;;5023516;28;20048;-80
2021/12/16 06:59:52;;;;;;;52.95;29.58;;;8.30;99.90;;;;;;5039223;28;20098;-80
2021/12/16 07:02:39;;;;;;;52.55;29.90;;;8.30;99.90;;;;;;5021216;28;20132;-82
2021/12/16 07:05:07;;;;;;;47.05;31.05;;;8.10;99.90;;;;;;5017645;28;20060;-82
2021/12/16 07:07:33;;;;;;;53.22;32.50;;;8.20;99.90;;;;;;5035781;28;20109;-83
2021/12/16 07:09:59;;;;;;;45.00;29.35;;;8.20;99.90;;;;;;5022144;28;20390;-83
2021/12/16 07:12:35;;;;;;;48.13;31.55;;;8.30;99.90;;;;;;5004834;28;20032;-81
2021/12/16 07:15:07;;;;;;;56.63;32.72;;;8.20;99.90;;;;;;5021877;28;20485;-83
2021/12/16 07:17:34;;;;;;;53.33;31.45;;;8.10;99.90;;;;;;5005833;28;20025;-83
2021/12/16 07:19:59;;;;;;;62.50;33.40;;;8.20;99.90;;;;;;5039816;28;20030;-83
2021/12/16 07:22:25;;;;;;;51.30;32.17;;;8.20;99.90;;;;;;5003060;28;20045;-82
2021/12/16 07:24:51;;;;;;;67.25;34.92;;;8.20;99.90;;;;;;5053784;28;20020;-81
2021/12/16 07:27:16;;;;;;;54.78;33.58;;;8.00;99.90;;;;;;5023637;28;20033;-82
2021/12/16 07:29:48;;;;;;;59.38;34.03;;;8.00;99.90;;;;;;5021422;28;20377;-81
2021/12/16 07:32:13;;;;;;;61.90;35.40;;;7.90;99.90;;;;;;5005430;28;20042;-81
2021/12/16 07:34:40;;;;;;;59.25;33.67;;;8.10;99.90;;;;;;5020645;28;20052;-80
2021/12/16 07:37:11;;;;;;;57.45;34.25;;;8.20;99.90;;;;;;5000460;28;20092;-81
2021/12/16 07:39:41;;;;;;;61.58;36.17;;;8.20;99.90;;;;;;5011147;28;20459;-79
2021/12/16 07:42:12;;;;;;;61.38;34.53;;;8.20;99.90;;;;;;5039162;28;20022;-82
2021/12/16 07:44:38;;;;;;;60.42;34.60;;;8.10;99.90;;;;;;5021100;28;20366;-80
2021/12/16 07:47:07;;;;;;;58.90;34.50;;;8.20;99.90;;;;;;5027957;28;20037;-83
2021/12/16 07:49:36;;;;;;;63.30;36.58;;;8.30;99.90;;;;;;5014601;28;20035;-83
2021/12/16 07:52:05;;;;;;;55.58;33.97;;;8.20;99.90;;;;;;5021864;28;20065;-82
2021/12/16 07:54:31;;;;;;;64.65;37.00;;;8.20;99.90;;;;;;5021395;28;20383;-82
2021/12/16 07:56:59;;;;;;;66.15;37.05;;;8.10;99.90;;;;;;5036633;28;20065;-82
2021/12/16 07:59:27;;;;;;;63.10;34.90;;;8.10;99.90;;;;;;5002544;28;20545;-82
2021/12/16 08:01:54;;;;;;;66.45;34.97;;;8.20;99.90;;;;;;5002159;28;20045;-81
2021/12/16 08:04:22;;;;;;;60.55;35.47;;;8.20;99.90;;;;;;5006074;28;20044;-82
2021/12/16 08:06:54;;;;;;;56.83;35.13;;;8.20;99.90;;;;;;5041700;28;20058;-82
2021/12/16 08:09:21;;;;;;;61.42;37.17;;;8.30;99.90;;;;;;5020974;28;20041;-82
2021/12/16 08:11:49;;;;;;;60.80;36.60;;;8.30;99.90;;;;;;5003494;28;20125;-82
2021/12/16 08:14:16;;;;;;;62.10;36.08;;;8.40;99.90;;;;;;5038768;28;20026;-83
2021/12/16 08:16:42;;;;;;;64.93;37.30;;;8.20;99.90;;;;;;5004421;28;20041;-82
2021/12/16 08:19:08;;;;;;;61.75;35.33;;;8.20;99.90;;;;;;5004116;28;20394;-82
2021/12/16 08:21:35;;;;;;;60.55;35.38;;;8.10;99.90;;;;;;5039163;28;20021;-84
2021/12/16 08:24:04;;;;;;;61.50;34.63;;;8.20;99.90;;;;;;5005658;28;20132;-83
2021/12/16 08:26:31;;;;;;;62.83;37.30;;;8.40;99.90;;;;;;5005776;28;20105;-81
2021/12/16 08:28:57;;;;;;;57.15;32.22;;;8.50;99.90;;;;;;5020408;28;20045;-83
2021/12/16 08:31:24;;;;;;;51.17;30.25;;;8.50;99.90;;;;;;5020354;28;20504;-82
2021/12/16 08:33:50;;;;;;;56.03;31.83;;;8.60;99.90;;;;;;5020167;28;20458;-81
2021/12/16 08:36:17;;;;;;;50.33;32.15;;;8.60;99.90;;;;;;5018919;28;20471;-81
2021/12/16 08:38:45;;;;;;;52.50;30.55;;;8.70;99.90;;;;;;5037948;28;20037;-82
2021/12/16 08:41:28;;;;;;;49.00;29.05;;;8.70;99.90;;;;;;5027839;28;20053;-82
2021/12/16 08:43:54;;;;;;;52.38;30.38;;;8.70;99.90;;;;;;5022339;28;20039;-81
2021/12/16 08:46:22;;;;;;;46.22;28.02;;;8.60;99.90;;;;;;5040359;28;20492;-81
2021/12/16 08:48:49;;;;;;;49.63;28.50;;;8.70;99.90;;;;;;5023961;28;20507;-85
2021/12/16 08:51:19;;;;;;;47.55;27.73;;;8.70;99.90;;;;;;5008673;28;20034;-79
2021/12/16 08:53:45;;;;;;;49.13;28.88;;;8.70;99.90;;;;;;5016707;28;20132;-78
2021/12/16 08:56:12;;;;;;;46.20;27.30;;;8.70;99.90;;;;;;4989273;28;20057;-80
2021/12/16 08:58:38;;;;;;;47.80;27.58;;;8.60;99.90;;;;;;5018615;28;20121;-79
2021/12/16 09:01:09;;;;;;;46.78;27.80;;;8.50;99.90;;;;;;5016577;28;20052;-79
2021/12/16 09:03:34;;;;;;;46.83;27.88;;;8.40;99.90;;;;;;5037770;28;20029;-81
2021/12/16 09:06:01;;;;;;;46.30;29.13;;;8.50;99.90;;;;;;5020742;28;20038;-80
2021/12/16 09:08:26;;;;;;;46.78;28.50;;;8.60;99.90;;;;;;5037412;28;20045;-81
2021/12/16 09:10:52;;;;;;;42.63;27.27;;;8.50;99.90;;;;;;5022355;28;20041;-81
2021/12/16 09:13:18;;;;;;;46.20;28.55;;;8.70;99.90;;;;;;4999116;28;20042;-81
2021/12/16 09:16:10;;;;;;;47.33;27.77;;;8.70;99.90;;;;;;5004595;28;20061;-80
2021/12/16 09:18:41;;;;;;;53.05;29.02;;;8.70;99.90;;;;;;5020918;28;20042;-82
2021/12/16 09:21:16;;;;;;;54.15;29.63;;;8.70;99.90;;;;;;5009387;28;20040;-80
2021/12/16 09:23:44;;;;;;;52.95;28.58;;;8.70;99.90;;;;;;5029667;28;20033;-81
2021/12/16 09:26:10;;;;;;;51.85;29.38;;;8.70;99.90;;;;;;5012266;28;20128;-80
2021/12/16 09:28:36;;;;;;;54.92;30.05;;;8.70;99.90;;;;;;5005647;28;20046;-79
2021/12/16 09:31:04;;;;;;;47.80;30.10;;;8.80;99.90;;;;;;5027663;28;20075;-80
2021/12/16 09:33:30;;;;;;;59.83;35.88;;;8.70;99.90;;;;;;5030323;28;20040;-80
2021/12/16 09:36:01;;;;;;;52.92;32.33;;;8.70;99.90;;;;;;5025065;28;20038;-82
2021/12/16 09:38:29;;;;;;;51.67;32.40;;;8.60;99.90;;;;;;5025334;28;20053;-81
2021/12/16 09:40:57;;;;;;;57.15;32.55;;;8.60;99.90;;;;;;5024894;28;20041;-80
2021/12/16 09:43:30;;;;;;;54.30;31.67;;;8.60;99.90;;;;;;5025157;28;20037;-82
2021/12/16 09:46:00;;;;;;;53.20;32.03;;;8.50;99.90;;;;;;5024961;28;20521;-80
2021/12/16 09:48:36;;;;;;;51.40;31.55;;;8.50;99.90;;;;;;5024446;28;20041;-82
2021/12/16 09:51:04;;;;;;;53.33;32.22;;;8.50;99.90;;;;;;5024729;28;20120;-83
2021/12/16 09:53:31;;;;;;;69.55;34.45;;;8.40;99.90;;;;;;5024325;28;20042;-82
2021/12/16 09:56:00;;;;;;;57.55;33.33;;;8.30;99.90;;;;;;5007107;28;20060;-81
2021/12/16 09:58:34;;;;;;;59.72;33.67;;;8.40;99.90;;;;;;5024840;28;20029;-81
2021/12/16 10:01:00;;;;;;;57.28;33.25;;;8.50;99.90;;;;;;5023763;28;20159;-81
2021/12/16 10:03:27;;;;;;;54.08;33.05;;;8.40;99.90;;;;;;5031659;28;20038;-81
2021/12/16 10:05:54;;;;;;;52.47;32.45;;;8.50;99.90;;;;;;5022697;28;20057;-81
2021/12/16 10:08:20;;;;;;;59.40;33.25;;;8.60;99.90;;;;;;5023692;28;20040;-81
2021/12/16 10:10:46;;;;;;;52.92;32.30;;;8.60;99.90;;;;;;5022433;28;20067;-81
2021/12/16 10:13:19;;;;;;;54.28;33.92;;;8.60;99.90;;;;;;5024654;28;20021;-83
2021/12/16 10:18:20;;;;;;;57.25;32.72;;;8.70;99.90;;;;;;5049846;28;20029;-83
2021/12/16 10:20:54;;;;;;;54.58;33.67;;;8.80;99.90;;;;;;5029485;28;20025;-81
2021/12/16 10:23:25;;;;;;;52.20;33.55;;;8.80;99.90;;;;;;5029606;28;20036;-80
2021/12/16 10:25:57;;;;;;;57.67;31.85;;;8.80;99.90;;;;;;5029927;28;20093;-83
2021/12/16 10:28:30;;;;;;;48.45;31.02;;;8.80;99.90;;;;;;5025646;28;20021;-80
2021/12/16 10:31:06;;;;;;;50.47;32.30;;;8.80;99.90;;;;;;5047100;28;20060;-81
2021/12/16 10:33:43;;;;;;;52.58;32.90;;;8.80;99.90;;;;;;5041757;28;20029;-81
2021/12/16 10:36:25;;;;;;;51.53;31.05;;;8.80;99.90;;;;;;5036761;28;20128;-83
2021/12/16 10:39:06;;;;;;;61.90;31.90;;;8.90;99.90;;;;;;5042253;28;20068;-81
2021/12/16 10:41:45;;;;;;;57.13;33.88;;;9.00;99.90;;;;;;5008846;28;20397;-82
2021/12/16 10:44:19;;;;;;;50.38;32.45;;;9.00;99.90;;;;;;5010261;28;20136;-81
2021/12/16 10:46:59;;;;;;;48.80;31.48;;;9.00;99.90;;;;;;5014554;28;20053;-82
2021/12/16 10:49:48;;;;;;;53.17;30.77;;;9.00;99.90;;;;;;5016469;28;20025;-82
2021/12/16 10:52:27;;;;;;;54.95;30.65;;;9.00;99.90;;;;;;5010928;28;20057;-80
2021/12/16 10:54:54;;;;;;;51.63;30.45;;;9.00;99.90;;;;;;5010708;28;20061;-82
2021/12/16 10:57:25;;;;;;;48.65;28.45;;;9.10;99.90;;;;;;5014032;28;20056;-78
2021/12/16 11:00:01;;;;;;;47.45;29.45;;;9.20;99.90;;;;;;5001967;28;20029;-81
2021/12/16 11:02:33;;;;;;;47.47;28.45;;;9.20;99.90;;;;;;5022342;28;20040;-84
2021/12/16 11:05:19;;;;;;;44.90;26.98;;;9.20;99.90;;;;;;5005167;28;20057;-84
2021/12/16 11:07:54;;;;;;;48.30;28.02;;;9.20;99.90;;;;;;5021338;28;20025;-80
2021/12/16 11:10:34;;;;;;;48.40;28.92;;;9.20;99.90;;;;;;5002948;28;20442;-81
2021/12/16 11:13:03;;;;;;;47.85;27.27;;;9.20;99.90;;;;;;5002462;28;20110;-81
2021/12/16 11:15:46;;;;;;;48.22;28.42;;;9.30;99.90;;;;;;4989318;28;20034;-81
2021/12/16 11:18:23;;;;;;;54.38;30.98;;;9.30;99.90;;;;;;5004750;28;20033;-81
2021/12/16 11:21:06;;;;;;;50.83;29.10;;;9.20;99.90;;;;;;5005485;28;20097;-82
2021/12/16 11:23:37;;;;;;;57.17;31.75;;;9.30;99.90;;;;;;5037479;28;20094;-82
2021/12/16 11:26:12;;;;;;;54.90;30.35;;;9.20;99.90;;;;;;5021551;28;20033;-81
2021/12/16 11:28:45;;;;;;;57.67;33.15;;;9.30;99.90;;;;;;5037287;28;20712;-81
2021/12/16 11:31:20;;;;;;;54.55;30.83;;;9.30;99.90;;;;;;5006406;28;20038;-84
2021/12/16 11:33:50;;;;;;;56.13;32.00;;;9.40;99.90;;;;;;5019521;28;20136;-83
2021/12/16 11:36:24;;;;;;;54.30;30.98;;;9.40;99.90;;;;;;5006891;28;20025;-83
2021/12/16 11:38:59;;;;;;;52.10;30.85;;;9.40;99.90;;;;;;5021039;28;20056;-83
2021/12/16 11:41:29;;;;;;;52.20;31.45;;;9.50;99.90;;;;;;5016152;28;20108;-81
2021/12/16 11:44:17;;;;;;;58.00;29.98;;;9.50;99.90;;;;;;5000937;28;20057;-82
2021/12/16 11:46:51;;;;;;;51.00;30.38;;;9.40;99.90;;;;;;5000298;28;20028;-83
2021/12/16 11:49:26;;;;;;;50.63;31.58;;;9.50;99.90;;;;;;5020392;28;20046;-83
2021/12/16 11:51:52;;;;;;;48.20;29.90;;;9.50;99.90;;;;;;5021179;28;20037;-84
2021/12/16 11:54:23;;;;;;;51.58;31.25;;;9.50;99.90;;;;;;5022934;28;20029;-84
2021/12/16 11:57:09;;;;;;;50.53;30.60;;;9.50;99.90;;;;;;5034822;28;20029;-81
2021/12/16 11:59:42;;;;;;;50.17;31.42;;;9.40;99.90;;;;;;5035087;28;20552;-84
2021/12/16 12:02:28;;;;;;;52.17;31.40;;;9.40;99.90;;;;;;5020164;28;20055;-82
2021/12/16 12:05:20;;;;;;;53.47;30.85;;;9.40;99.90;;;;;;5011301;28;20032;-83
2021/12/16 12:07:53;;;;;;;51.97;30.00;;;9.40;99.90;;;;;;5011642;28;20048;-85
2021/12/16 12:10:41;;;;;;;45.33;28.83;;;9.50;99.90;;;;;;5017702;28;20037;-83
2021/12/16 12:13:11;;;;;;;43.25;26.90;;;9.60;99.90;;;;;;5021123;28;20029;-83
2021/12/16 12:16:02;;;;;;;46.28;28.35;;;9.50;99.90;;;;;;5026000;28;20112;-84
2021/12/16 12:18:58;;;;;;;46.97;27.42;;;9.40;99.90;;;;;;5009942;28;20353;-82
2021/12/16 12:21:30;;;;;;;46.70;27.13;;;9.50;99.90;;;;;;5008124;28;20040;-84
2021/12/16 12:24:07;;;;;;;44.97;28.20;;;9.50;99.90;;;;;;5021173;28;20037;-83
2021/12/16 12:26:44;;;;;;;44.08;26.70;;;9.50;99.90;;;;;;5020924;28;20393;-87
2021/12/16 12:29:25;;;;;;;44.22;25.70;;;9.50;99.90;;;;;;5021011;28;20057;-86
2021/12/16 12:31:54;;;;;;;39.08;27.25;;;9.50;99.90;;;;;;5022012;28;20033;-81
2021/12/16 12:34:21;;;;;;;42.92;26.52;;;9.60;99.90;;;;;;5023352;28;20041;-82
2021/12/16 12:36:48;;;;;;;44.42;25.13;;;9.60;99.90;;;;;;5038849;28;20064;-83
2021/12/16 12:39:18;;;;;;;47.42;27.35;;;9.60;99.90;;;;;;5005839;28;20033;-83
2021/12/16 12:41:45;;;;;;;43.58;26.13;;;9.60;99.90;;;;;;5018569;28;20111;-80
2021/12/16 12:44:11;;;;;;;44.00;27.27;;;9.50;99.90;;;;;;5017839;28;20030;-81
2021/12/16 12:46:42;;;;;;;38.80;25.30;;;9.50;99.90;;;;;;5000397;28;20060;-85
2021/12/16 12:49:11;;;;;;;42.80;26.02;;;9.60;99.90;;;;;;5015498;28;20564;-83
2021/12/16 12:51:44;;;;;;;41.47;25.58;;;9.50;99.90;;;;;;5002178;28;20038;-82
2021/12/16 12:54:20;;;;;;;42.72;24.90;;;9.60;99.90;;;;;;5001755;28;20038;-83
2021/12/16 12:56:47;;;;;;;41.40;25.10;;;9.50;99.90;;;;;;5015306;28;20026;-81
2021/12/16 12:59:17;;;;;;;43.38;26.17;;;9.50;99.90;;;;;;4999707;28;20450;-80
2021/12/16 13:01:44;;;;;;;43.13;26.10;;;9.40;99.90;;;;;;4999959;28;20038;-81
2021/12/16 13:04:26;;;;;;;37.53;23.92;;;9.30;99.90;;;;;;5017826;28;20049;-82
2021/12/16 13:06:54;;;;;;;40.67;26.05;;;9.30;99.90;;;;;;5017107;28;20056;-85
2021/12/16 13:09:32;;;;;;;48.42;26.98;;;9.30;99.90;;;;;;4987046;28;20034;-83
2021/12/16 13:12:00;;;;;;;38.58;24.10;;;9.30;99.90;;;;;;5002196;28;20034;-85
2021/12/16 13:14:42;;;;;;;43.90;24.50;;;9.40;99.90;;;;;;5024398;28;20029;-82
2021/12/16 13:28:18;;;;;;;37.72;23.38;;;9.40;99.90;;;;;;5032735;28;20489;-85
2021/12/16 13:31:00;;;;;;;37.97;24.13;;;9.40;99.90;;;;;;5021100;28;20030;-83
2021/12/16 13:33:42;;;;;;;41.90;23.80;;;9.60;99.90;;;;;;5038502;28;20048;-83
2021/12/16 13:36:26;;;;;;;42.47;23.42;;;9.50;99.90;;;;;;5021534;28;20059;-82
2021/12/16 13:38:52;;;;;;;39.28;23.75;;;9.60;99.90;;;;;;5021114;28;20547;-84
2021/12/16 13:41:24;;;;;;;35.67;22.40;;;9.60;99.90;;;;;;5003849;28;20137;-83
2021/12/16 13:44:02;;;;;;;39.05;24.33;;;9.60;99.90;;;;;;5037852;28;20041;-83
2021/12/16 13:46:38;;;;;;;40.55;24.48;;;9.50;99.90;;;;;;5004930;28;20382;-81
2021/12/16 13:58:32;;;;;;;38.58;23.58;;;9.60;99.90;;;;;;5025219;28;20022;-82
2021/12/16 14:04:07;;;;;;;38.45;22.75;;;9.50;99.90;;;;;;5024581;28;20030;-82
2021/12/16 14:06:53;;;;;;;38.05;22.67;;;9.50;99.90;;;;;;5043001;28;20021;-84
2021/12/16 14:09:35;;;;;;;38.22;22.98;;;9.40;99.90;;;;;;5009475;28;20481;-84
2021/12/16 14:13:30;;;;;;;36.55;21.60;;;9.50;99.90;;;;;;5023652;28;20033;-83
2021/12/16 14:15:19;;;;;;;32.80;20.70;;;9.50;99.90;;;;;;5043347;28;20036;-83
2021/12/16 14:18:11;;;;;;;30.35;19.42;;;9.50;99.90;;;;;;5027664;28;20021;-84
2021/12/16 14:24:01;;;;;;;32.08;19.27;;;9.50;99.90;;;;;;5042811;28;20049;-84
2021/12/16 14:45:17;;;;;;;25.05;17.00;;;9.50;99.90;;;;;;5041786;28;20396;-81
2021/12/16 14:48:03;;;;;;;26.55;17.25;;;9.60;99.90;;;;;;5022684;28;20351;-84
2021/12/16 14:50:38;;;;;;;26.85;17.17;;;9.60;99.90;;;;;;5039827;28;20033;-82
2021/12/16 14:53:18;;;;;;;25.88;15.77;;;9.50;99.90;;;;;;5003281;28;20026;-83
2021/12/16 14:55:45;;;;;;;26.60;16.60;;;9.60;99.90;;;;;;5003415;28;20041;-85
2021/12/16 14:58:12;;;;;;;28.15;17.80;;;9.70;99.90;;;;;;5009728;28;20065;-84
2021/12/16 15:00:48;;;;;;;26.25;18.42;;;9.60;99.90;;;;;;5004206;28;20029;-84
2021/12/16 15:03:18;;;;;;;29.02;18.08;;;9.60;99.90;;;;;;5019490;28;20030;-81
2021/12/16 15:05:51;;;;;;;28.20;17.13;;;9.60;99.90;;;;;;5002892;28;20045;-83
2021/12/16 15:08:33;;;;;;;29.38;18.83;;;9.60;99.90;;;;;;5019407;28;20026;-81
2021/12/16 15:11:01;;;;;;;25.65;17.75;;;9.70;99.90;;;;;;5024558;28;20099;-83
2021/12/16 15:13:41;;;;;;;25.75;16.95;;;9.60;99.90;;;;;;5006705;28;20504;-83
2021/12/16 15:34:54;;;;;;;23.20;15.90;;;9.40;99.90;;;;;;5034296;28;20029;-81
2021/12/16 15:43:50;;;;;;;26.92;17.23;;;9.50;99.90;;;;;;5039947;28;20651;-82
2021/12/16 15:46:16;;;;;;;24.52;16.58;;;9.60;99.90;;;;;;5022664;28;20029;-82
2021/12/16 15:48:47;;;;;;;18.30;12.88;;;9.50;99.90;;;;;;5019332;28;20116;-81
2021/12/16 15:51:13;;;;;;;18.45;12.73;;;9.50;99.90;;;;;;5011566;28;20033;-81
2021/12/16 15:53:55;;;;;;;18.05;12.60;;;9.40;99.90;;;;;;5025972;28;20044;-81
2021/12/16 15:56:37;;;;;;;17.20;11.05;;;9.40;99.90;;;;;;5027013;28;20034;-81
2021/12/16 15:59:12;;;;;;;16.75;11.35;;;9.40;99.90;;;;;;5002642;28;20183;-80
2021/12/16 16:01:50;;;;;;;17.48;9.98;;;9.40;99.90;;;;;;5020821;28;20060;-81
2021/12/16 16:04:19;;;;;;;16.27;10.68;;;9.40;99.90;;;;;;5020441;28;20175;-80
2021/12/16 16:06:49;;;;;;;14.18;10.02;;;9.50;99.90;;;;;;5021365;28;20030;-80
2021/12/16 16:09:16;;;;;;;21.23;11.10;;;9.40;99.90;;;;;;5022159;28;20105;-81
2021/12/16 16:11:47;;;;;;;17.17;10.88;;;9.50;99.90;;;;;;5037084;28;20392;-82
2021/12/16 16:14:31;;;;;;;16.02;10.50;;;9.50;99.90;;;;;;5041469;28;20104;-84
2021/12/16 16:16:58;;;;;;;14.57;10.70;;;9.50;99.90;;;;;;5023327;28;20056;-80
2021/12/16 16:19:34;;;;;;;16.45;11.32;;;9.60;99.90;;;;;;5026666;28;20036;-82
2021/12/16 16:22:09;;;;;;;17.38;11.35;;;9.50;99.90;;;;;;5029987;28;20473;-83
2021/12/16 16:24:47;;;;;;;15.35;11.63;;;9.60;99.90;;;;;;5033908;28;20059;-81